Terminal Aerodrome Forecast
Issued by NWS Tampa Bay Area, FL

Home | Current Version | Previous Version | Text Only | Print | Product List | Glossary On
Versions: 1 2 3 4 5 6 7 8 9 10 11 12 13 14 15 16 17 18 19 20 21 22 23 24 25 26
000
FTUS42 KTBW 212333
TAFTPA
TAF
KTPA 212333Z 2200/2306 09005KT P6SM SCT050
     FM220400 09003KT P6SM SKC
     FM221400 08006KT P6SM SCT025
      TEMPO 2214/2216 BKN025
     FM221700 10008KT P6SM SCT040=

USA.gov is the U.S. government's official web portal to all federal, state and local government web resources and services.